Racecast

Lampasas Battlin' Badger XC Invitational

Lampasas High School · 3218m · Girls · 1-4A Varsity Girls · 2018-10-05 · TX

Course difficulty: +0.017

Race-day weather: 81°F · wind 35 mph · humidity 65%

View full meet →

Team scores

Place Team Points 12345 67
1 St Michaels Catholic (TX) 63 3 9 11 16 24 28 35
2 Liberty Hill (TX) 70 8 12 14 17 19 20 21
3 San Saba (TX) 70 2 4 13 15 36 38 39
4 Salado (TX) 98 1 7 25 32 33 46 51
5 Valley Mills (TX) 101 5 6 26 27 37 47 61
6 Lampasas (TX) 133 10 18 29 34 42 43 48
7 Taylor (TX) 185 22 30 31 45 57 64
8 Hamilton (TX) 245 23 52 53 54 63
9 Burnet (TX) 252 41 44 50 55 62
10 Rosebud-Lott (TX) 273 40 49 59 60 65 70
11 Reicher Catholic (TX) 328 56 66 67 68 71 75
12 Hyde Park Baptist (TX) 346 58 69 72 73 74 76

As scored by the meet.

Results

Place Athlete Grade School Time Rating Points
1 Jaci McGregor 10 Salado (TX) 1 11:46.4 PR 132.4 1
2 Kaleigh Ellis 12 San Saba (TX) 1 12:17.7 126.8 2
3 Kinga Parrish 12 St Michaels Catholic (TX) 1 12:37.8 SR 123.5 3
4 Brighton Adams 10 San Saba (TX) 2 12:46.9 122.0 4
5 Hannah Dillard 12 Valley Mills (TX) 1 12:49.3 SR 121.6 5
6 Kyra Zengerle 11 Valley Mills (TX) 2 12:50.2 PR 121.5 6
7 Anna Lesley 9 Salado (TX) 2 12:54.8 PR 120.8 7
8 Aubrey Caskey 12 Liberty Hill (TX) 1 12:56.4 120.5 8
9 Mary Hodapp 12 St Michaels Catholic (TX) 2 12:58 SR 120.3 9
10 Taylor Moore 12 Lampasas (TX) 1 12:58.2 120.2 10
11 Camille Terracina 9 St Michaels Catholic (TX) 3 13:02.1 PR 119.6 11
12 Bella Brethower 9 Liberty Hill (TX) 2 13:03.3 PR 119.4 12
13 Courtnee Cash 10 San Saba (TX) 3 13:06.2 119.0 13
14 Tyler Goode 9 Liberty Hill (TX) 3 13:09.3 PR 118.5 14
15 Kylee Eckermann 11 San Saba (TX) 4 13:09.8 118.5 15
16 Gabrielle Bliss 10 St Michaels Catholic (TX) 4 13:10.6 PR 118.3 16
17 Lindsee Miller 11 Liberty Hill (TX) 4 13:13.9 PR 117.8 17
18 Abby Valdez 9 Lampasas (TX) 2 13:14 117.8 18
19 Hannah Johnson 11 Liberty Hill (TX) 5 13:16 117.5 19
20 Madison Sears 11 Liberty Hill (TX) 6 13:17 SR 117.4 20
21 Hannah Brown 12 Liberty Hill (TX) 7 13:23.6 116.4 21
22 Ashlyn Collier 11 Taylor (IN) 1 13:24.1 PR 116.3 22
23 Katie Galloway 9 Hamilton (MI) 1 13:24.6 116.3 23
24 Sydney Osgood 9 St Michaels Catholic (TX) 5 13:27.2 PR 115.9 24
25 Catalina Langlitz 11 Salado (TX) 3 13:27.6 115.8 25
26 Shae Fancher 10 Valley Mills (TX) 3 13:27.9 SR 115.8 26
27 Eliana Luna 12 Liberty Hill (TX) 8 13:29.8 115.5
28 Hannah Robinson 11 Valley Mills (TX) 4 13:31.6 115.3 27
29 Ellie Greff 10 St Michaels Catholic (TX) 6 13:33.3 PR 115.0 28
30 Annabelle Brack 11 Lampasas (TX) 3 13:33.6 115.0 29
31 Payton Stephenson 9 Liberty Hill (TX) 9 13:35.1 PR 114.8
32 Sarah Vrabel 10 Taylor (IN) 2 13:37.2 114.5 30
33 Hannah Villarreal 10 Taylor (IN) 3 13:38.8 114.3 31
34 Avery Fossum 9 Salado (TX) 4 13:39.6 PR 114.2 32
35 Taylor Rich 11 Salado (TX) 5 13:39.7 114.1 33
36 Mackenzie Best 12 Lampasas (TX) 4 13:40.1 114.1 34
37 Cadence Layne 9 St Michaels Catholic (TX) 7 13:41.1 PR 113.9 35
38 Allison Lantz 12 Moody (TX) 1 13:42.4 113.8
39 Finola Thomas 9 St Michaels Catholic (TX) 8 13:44.3 PR 113.5
40 Bailee Franks 12 San Saba (TX) 5 13:46.2 113.2 36
41 Yomayra Rodarte 11 Valley Mills (TX) 5 13:47.1 113.1 37
42 Nojemi Martinez 9 San Saba (TX) 6 13:48 113.0 38
43 Landri Glover 9 San Saba (TX) 7 13:51.1 112.6 39
44 McKenzie McGinniss 10 Rosebud-Lott (TX) 1 13:52 112.4 40
45 Fatima Rodriguez 12 Burnet (TX) 1 14:01.1 SR 111.2 41
46 Abby Jimenez 10 San Saba (TX) 8 14:02.2 111.1
47 Caitlyn Townsend 9 Lampasas (TX) 5 14:04.1 PR 110.8 42
48 Kennedy Coleman 12 Liberty Hill (TX) 10 14:04.8 110.8
49 Kailey O'Donnell 10 Lampasas (TX) 6 14:08.9 SR 110.2 43
50 Raegan Thurmond 9 San Saba (TX) 9 14:12.3 109.8
51 Rose Flores 10 Burnet (TX) 2 14:13.8 SR 109.6 44
52 Aiyanna Thompson 9 Taylor (IN) 4 14:15.4 109.4 45
53 Samantha Vargas 11 Salado (TX) 6 14:16.9 109.2 46
54 Kaylee Burt 11 Valley Mills (TX) 6 14:23.7 SR 108.3 47
55 Leilany Alvarez 9 Lampasas (TX) 7 14:34.2 PR 107.0 48
56 Veronica Hodapp 9 St Michaels Catholic (TX) 9 14:38.2 PR 106.5
57 Melissa Williams 10 Evant (TX) 1 14:40.6 PR 106.2
58 Abigail Mondragon 11 Rosebud-Lott (TX) 2 14:45.3 105.7 49
59 Lilly Brady 9 Lampasas (TX) 8 14:48.2 105.3
60 Victoria Renteria 11 Lampasas (TX) 9 14:48.4 PR 105.3
61 Gracyn Bennett 10 Burnet (TX) 3 14:51.4 PR 105.0 50
62 Reginia Deen 12 Salado (TX) 7 14:53.7 104.7 51
63 Kamryn Hope 10 Hamilton (MI) 2 14:55.1 SR 104.5 52
64 Abigail Killian 11 Hamilton (MI) 3 14:56.5 SR 104.4 53
65 Lyla Senn 12 St Michaels Catholic (TX) 10 14:57.2 SR 104.3
66 White Addison 12 Lampasas (TX) 10 14:59.5 104.0
67 Madison Hope 9 Hamilton (MI) 4 15:02 PR 103.7 54
68 Zoe Nicholl 9 Burnet (TX) 4 15:05.3 PR 103.3 55
69 Madorry Gonzales 9 Reicher Catholic (TX) 1 15:06.2 103.2 56
70 Jessica Alonso 12 Taylor (IN) 5 15:12.8 102.5 57
71 Lydia Pergande 11 Hyde Park Baptist (TX) 1 15:16.9 PR 102.0 58
72 Kimberly Kendall 10 Salado (TX) 8 15:17.3 102.0
73 Lily Dawson 11 Rosebud-Lott (TX) 3 15:18.1 101.9 59
74 Stevie Sohns 9 Moody (TX) 2 15:20.3 SR 101.7
75 Emma Hering 10 Rosebud-Lott (TX) 4 15:38.8 SR 99.7 60
76 Emma Martin 9 Evant (TX) 2 15:46.7 98.8
77 Caeleigh Burkham 9 Evant (TX) 3 15:49.5 98.5
78 Hailey Graves 11 Valley Mills (TX) 7 15:55.5 97.9 61
79 Anna Kerkow 12 Concordia (Pflugerville/Austin) (TX) 1 15:56.3 97.8
80 Halee Muccigrossi 10 Burnet (TX) 5 15:57 97.8 62
81 Skylar Carr 9 Hamilton (MI) 5 16:01.9 PR 97.3 63
82 Jenny Paris 11 Taylor (IN) 6 16:06.1 96.8 64
83 McKenzie Glaser 9 Rosebud-Lott (TX) 5 16:08.4 PR 96.6 65
84 Monica Gaona 11 Valley Mills (TX) 8 16:12.5 96.2
85 Perla Zauilan 11 Austin Eastside (fka Memorial; fka Johnston) (TX) 1 16:32.2 94.3
86 Hailey Hack 12 Reicher Catholic (TX) 2 16:44.8 SR 93.1 66
87 Olivia Dorton 10 Reicher Catholic (TX) 3 17:05.2 91.3 67
88 Emmie Hack 10 Reicher Catholic (TX) 4 17:34.3 88.7 68
89 Sarah Bertelson 11 Hyde Park Baptist (TX) 2 17:40 88.3 69
90 Lakya Jackson 9 Rosebud-Lott (TX) 6 17:48.8 PR 87.5 70
91 Lindsey Moncada 9 Reicher Catholic (TX) 5 18:14 85.5 71
92 Maleah Springer 10 Hyde Park Baptist (TX) 3 18:24.5 PR 84.7 72
93 Abbie Butler 10 Hyde Park Baptist (TX) 4 18:29.1 84.4 73
94 Abbie (Abigayle) Detamore 9 Hyde Park Baptist (TX) 5 18:33.4 84.0 74
95 Aurora Borden 9 Moody (TX) 3 19:16.2 PR 80.9
96 Wray Morgan 11 Reicher Catholic (TX) 6 19:20 80.7 75
97 Baylee Allen 12 Moody (TX) 4 19:23.2 PR 80.4
98 Cathrine Ceaser 10 Hyde Park Baptist (TX) 6 20:27.1 SR 76.2 76
99 Maria Arias 10 Austin Eastside (fka Memorial; fka Johnston) (TX) 2 22:33.3 69.1
100 Wendy Calderon 9 Austin Eastside (fka Memorial; fka Johnston) (TX) 3 24:50.3
Something wrong on this page? Report it →